Time;durP1;ratioP1;P1;durP2;ratioP2;P2;SDS_P1;SDS_P2;PMS_P1;PMS_P2;Temp;Humidity;BMP_temperature;BMP_pressure;BME280_temperature;BME280_humidity;BME280_pressure;Samples;Min_cycle;Max_cycle;Signal;HPM_P1;HPM_P2
2022/09/22 00:00:42;;;;;;;0.38;0.38;;;7.50;99.90;;;;;;5000333;28;20031;-73
2022/09/22 00:03:08;;;;;;;2.30;1.45;;;7.40;99.90;;;;;;5034510;28;20021;-73
2022/09/22 00:05:34;;;;;;;0.30;0.30;;;7.40;99.90;;;;;;5000171;28;20022;-73
2022/09/22 00:08:03;;;;;;;0.30;0.30;;;7.50;99.90;;;;;;5034293;28;20033;-73
2022/09/22 00:10:29;;;;;;;0.20;0.20;;;7.50;99.90;;;;;;5034292;28;20037;-73
2022/09/22 00:12:55;;;;;;;0.20;0.20;;;7.70;99.90;;;;;;5034080;28;20021;-73
2022/09/22 00:15:21;;;;;;;0.40;0.40;;;7.60;99.90;;;;;;5016207;28;20029;-73
2022/09/22 00:17:46;;;;;;;0.20;0.20;;;7.50;99.90;;;;;;5034082;28;20306;-73
2022/09/22 00:20:12;;;;;;;0.30;0.30;;;7.20;99.90;;;;;;5033879;28;20021;-73
2022/09/22 00:22:39;;;;;;;0.30;0.30;;;7.00;99.90;;;;;;5033931;28;20435;-73
2022/09/22 00:25:07;;;;;;;0.20;0.20;;;6.90;99.90;;;;;;5033772;28;20445;-73
2022/09/22 00:27:33;;;;;;;0.30;0.30;;;7.10;99.90;;;;;;5033897;28;20029;-73
2022/09/22 00:29:59;;;;;;;1.50;1.40;;;7.30;99.90;;;;;;5033816;28;20031;-73
2022/09/22 00:32:25;;;;;;;0.30;0.30;;;7.40;99.90;;;;;;5016141;28;20026;-73
2022/09/22 00:34:51;;;;;;;2.67;2.45;;;7.60;99.90;;;;;;5033434;28;20037;-73
2022/09/22 00:37:17;;;;;;;0.30;0.30;;;7.50;99.90;;;;;;5033538;28;20025;-73
2022/09/22 00:39:43;;;;;;;0.20;0.20;;;7.50;99.90;;;;;;5033656;28;20026;-73
2022/09/22 00:42:11;;;;;;;0.82;0.82;;;7.50;99.90;;;;;;5015827;28;20041;-73
2022/09/22 00:44:42;;;;;;;0.20;0.20;;;7.50;99.90;;;;;;5033358;28;20104;-73
2022/09/22 00:47:13;;;;;;;0.20;0.20;;;7.40;99.90;;;;;;5033104;28;20542;-73
2022/09/22 00:49:50;;;;;;;0.20;0.20;;;7.50;99.90;;;;;;5015596;28;20512;-73
2022/09/22 00:52:33;;;;;;;0.40;0.40;;;7.70;99.90;;;;;;5015670;28;20109;-73
2022/09/22 00:55:05;;;;;;;0.20;0.20;;;7.60;99.90;;;;;;5033093;28;20037;-73
2022/09/22 00:57:33;;;;;;;;;;;7.50;99.90;;;;;;5016039;28;20044;-73
2022/09/22 01:00:03;;;;;;;0.20;0.20;;;7.40;99.90;;;;;;5033349;28;20196;-73
2022/09/22 01:02:29;;;;;;;0.30;0.30;;;7.30;99.90;;;;;;5033115;28;20068;-73
2022/09/22 01:04:54;;;;;;;0.30;0.30;;;7.30;99.90;;;;;;5033069;28;20021;-73
2022/09/22 01:07:25;;;;;;;0.20;0.20;;;7.20;99.90;;;;;;5033043;28;20033;-73
2022/09/22 01:09:51;;;;;;;3.63;1.00;;;7.30;99.90;;;;;;5032958;28;20086;-73
2022/09/22 01:12:18;;;;;;;0.40;0.40;;;7.20;99.90;;;;;;5015221;28;20033;-73
2022/09/22 01:15:13;;;;;;;0.20;0.20;;;7.20;99.90;;;;;;5032817;28;20104;-73
2022/09/22 01:17:55;;;;;;;0.25;0.25;;;7.10;99.90;;;;;;5022550;28;20047;-73
2022/09/22 01:20:26;;;;;;;0.20;0.20;;;7.10;99.90;;;;;;5032827;28;20411;-73
2022/09/22 01:23:17;;;;;;;0.40;0.40;;;7.00;99.90;;;;;;5032824;28;20021;-73
2022/09/22 01:26:01;;;;;;;0.20;0.20;;;7.00;99.90;;;;;;5032708;28;20087;-73
2022/09/22 01:28:58;;;;;;;0.50;0.50;;;6.80;99.90;;;;;;5014945;28;20028;-73
2022/09/22 01:31:29;;;;;;;0.20;0.20;;;6.70;99.90;;;;;;5032557;28;20065;-73
2022/09/22 01:34:23;;;;;;;0.20;0.20;;;6.70;99.90;;;;;;5032520;28;20048;-73
2022/09/22 01:37:03;;;;;;;0.20;0.20;;;6.50;99.90;;;;;;5032405;28;20095;-73
2022/09/22 01:39:33;;;;;;;0.20;0.20;;;6.50;99.90;;;;;;5032611;28;20028;-73
2022/09/22 01:42:04;;;;;;;0.20;0.20;;;6.60;99.90;;;;;;5032287;28;20401;-73
2022/09/22 01:44:33;;;;;;;0.30;0.30;;;6.60;99.90;;;;;;5014862;28;20041;-73
2022/09/22 01:47:18;;;;;;;0.20;0.20;;;6.60;99.90;;;;;;4998165;28;20025;-73
2022/09/22 01:49:55;;;;;;;0.20;0.20;;;6.70;99.90;;;;;;5014522;28;20087;-73
2022/09/22 01:52:31;;;;;;;0.20;0.20;;;6.60;99.90;;;;;;5031059;28;20087;-73
2022/09/22 01:55:03;;;;;;;0.20;0.20;;;6.50;99.90;;;;;;5030877;28;20025;-73
2022/09/22 01:57:44;;;;;;;0.65;0.65;;;6.30;99.90;;;;;;5031327;28;20032;-73
2022/09/22 02:00:10;;;;;;;0.57;0.57;;;6.30;99.90;;;;;;5032391;28;20057;-73
2022/09/22 02:02:39;;;;;;;0.20;0.20;;;6.40;99.90;;;;;;5032211;28;20022;-73
2022/09/22 02:05:12;;;;;;;0.20;0.20;;;6.60;99.90;;;;;;5031972;28;20029;-73
2022/09/22 02:07:42;;;;;;;0.20;0.20;;;6.90;99.90;;;;;;5014450;28;20338;-73
2022/09/22 02:10:11;;;;;;;0.20;0.20;;;7.00;99.90;;;;;;5032070;28;20033;-73
2022/09/22 02:12:37;;;;;;;0.20;0.20;;;7.00;99.90;;;;;;5032019;28;20021;-73
2022/09/22 02:15:58;;;;;;;0.15;0.15;;;6.90;99.90;;;;;;5031463;28;20083;-74
2022/09/22 02:17:56;;;;;;;0.20;0.20;;;6.80;99.90;;;;;;5033245;28;20033;-73
2022/09/22 02:20:23;;;;;;;0.22;0.22;;;6.80;99.90;;;;;;5015765;28;20030;-73
2022/09/22 02:22:50;;;;;;;0.20;0.20;;;6.90;99.90;;;;;;5015697;28;20021;-74
2022/09/22 02:25:15;;;;;;;0.20;0.20;;;6.80;99.90;;;;;;5033345;28;20075;-73
2022/09/22 02:27:43;;;;;;;0.20;0.20;;;6.80;99.90;;;;;;5016068;28;20034;-74
2022/09/22 02:30:11;;;;;;;0.30;0.30;;;6.60;99.90;;;;;;5033721;28;20132;-74
2022/09/22 02:32:41;;;;;;;0.25;0.25;;;6.70;99.90;;;;;;5033191;28;20038;-73
2022/09/22 02:35:08;;;;;;;0.20;0.20;;;6.80;99.90;;;;;;5033405;28;20099;-73
2022/09/22 02:37:45;;;;;;;0.20;0.20;;;6.80;99.90;;;;;;5033243;28;20071;-73
2022/09/22 02:40:29;;;;;;;0.20;0.20;;;6.80;99.90;;;;;;5033426;28;20018;-73
2022/09/22 02:43:18;;;;;;;0.20;0.20;;;6.70;99.90;;;;;;5032947;28;20485;-73
2022/09/22 02:46:12;;;;;;;0.20;0.20;;;6.70;99.90;;;;;;5015405;28;20104;-73
2022/09/22 02:48:48;;;;;;;0.20;0.20;;;6.60;99.90;;;;;;5032861;28;20029;-73
2022/09/22 02:51:15;;;;;;;0.20;0.20;;;6.70;99.90;;;;;;5033318;28;20038;-73
2022/09/22 02:53:40;;;;;;;0.20;0.20;;;6.70;99.90;;;;;;5032956;28;20549;-73
2022/09/22 02:56:06;;;;;;;0.30;0.30;;;6.50;99.90;;;;;;5033502;28;20065;-76
2022/09/22 02:58:32;;;;;;;0.20;0.20;;;6.30;99.90;;;;;;5033304;28;20044;-73
2022/09/22 03:00:58;;;;;;;0.20;0.20;;;6.30;99.90;;;;;;5033407;28;20026;-73
2022/09/22 03:03:24;;;;;;;0.32;0.32;;;6.30;99.90;;;;;;5032952;28;20028;-75
2022/09/22 03:05:49;;;;;;;0.20;0.20;;;6.30;99.90;;;;;;5033137;28;20053;-73
2022/09/22 03:08:15;;;;;;;0.28;0.28;;;6.20;99.90;;;;;;5033459;28;20030;-73
2022/09/22 03:10:41;;;;;;;0.30;0.30;;;6.20;99.90;;;;;;5037370;28;20029;-73
2022/09/22 03:13:07;;;;;;;0.30;0.30;;;6.40;99.90;;;;;;5036841;28;20025;-74
2022/09/22 03:15:33;;;;;;;0.20;0.20;;;6.40;99.90;;;;;;5036655;28;20030;-73
2022/09/22 03:17:59;;;;;;;0.30;0.30;;;6.30;99.90;;;;;;5036817;28;20033;-73
2022/09/22 03:20:25;;;;;;;0.20;0.20;;;6.20;99.90;;;;;;5036990;28;20026;-73
2022/09/22 03:22:50;;;;;;;0.30;0.30;;;6.00;99.90;;;;;;5039670;28;20021;-73
2022/09/22 03:25:16;;;;;;;0.20;0.20;;;5.90;99.90;;;;;;5076194;28;20074;-73
2022/09/22 03:27:42;;;;;;;0.38;0.38;;;5.90;99.90;;;;;;5076704;28;20468;-73
2022/09/22 03:30:08;;;;;;;0.20;0.20;;;5.90;99.90;;;;;;5076152;28;20024;-74
2022/09/22 03:32:35;;;;;;;0.22;0.22;;;5.90;99.90;;;;;;5076488;28;20052;-74
2022/09/22 03:35:01;;;;;;;0.20;0.20;;;6.00;99.90;;;;;;5076423;28;20131;-73
2022/09/22 03:37:27;;;;;;;0.30;0.30;;;6.10;99.90;;;;;;5074825;28;20029;-73
2022/09/22 03:39:53;;;;;;;0.17;0.17;;;6.20;99.90;;;;;;5056890;28;20029;-73
2022/09/22 03:42:18;;;;;;;0.30;0.30;;;6.10;99.90;;;;;;5074422;28;20055;-73
2022/09/22 03:44:44;;;;;;;0.63;0.63;;;6.30;99.90;;;;;;5074404;28;20020;-73
2022/09/22 03:47:10;;;;;;;0.40;0.40;;;6.50;99.90;;;;;;5074528;28;20028;-73
2022/09/22 03:49:36;;;;;;;0.20;0.20;;;6.30;99.90;;;;;;5074387;28;20040;-73
2022/09/22 03:52:01;;;;;;;0.20;0.20;;;6.10;99.90;;;;;;5073214;28;20036;-73
2022/09/22 03:54:27;;;;;;;0.30;0.30;;;5.90;99.90;;;;;;5056524;28;20063;-73
2022/09/22 03:56:54;;;;;;;0.22;0.22;;;5.70;99.90;;;;;;5074174;28;20024;-73
2022/09/22 03:59:19;;;;;;;0.20;0.20;;;5.50;99.90;;;;;;5072906;28;20031;-73
2022/09/22 04:01:46;;;;;;;0.20;0.20;;;5.50;99.90;;;;;;5073045;28;20112;-73
2022/09/22 04:04:12;;;;;;;0.20;0.20;;;5.80;99.90;;;;;;5072843;28;20044;-73
2022/09/22 04:06:37;;;;;;;0.20;0.20;;;5.90;99.90;;;;;;5056213;28;20025;-73
2022/09/22 04:09:04;;;;;;;0.30;0.30;;;5.90;99.90;;;;;;5056219;28;20028;-73
2022/09/22 04:11:30;;;;;;;0.20;0.20;;;6.00;99.90;;;;;;5056098;28;20062;-73
2022/09/22 04:13:56;;;;;;;0.57;0.57;;;6.00;99.90;;;;;;5073901;28;20032;-73
2022/09/22 04:16:23;;;;;;;0.30;0.30;;;5.70;99.90;;;;;;5073751;28;20035;-73
2022/09/22 04:18:48;;;;;;;0.22;0.22;;;5.50;99.90;;;;;;5073834;28;20491;-73
2022/09/22 04:21:14;;;;;;;0.20;0.20;;;5.20;99.90;;;;;;5072945;28;20020;-73
2022/09/22 04:23:40;;;;;;;0.20;0.20;;;5.20;99.90;;;;;;5073759;28;20433;-72
2022/09/22 04:26:06;;;;;;;0.28;0.28;;;5.30;99.90;;;;;;5055935;28;20541;-73
2022/09/22 04:28:32;;;;;;;0.20;0.20;;;5.50;99.90;;;;;;5073778;28;20059;-73
2022/09/22 04:30:57;;;;;;;0.20;0.20;;;5.70;99.90;;;;;;5055815;28;20028;-73
2022/09/22 04:33:24;;;;;;;0.20;0.20;;;5.80;99.90;;;;;;5073616;28;20020;-73
2022/09/22 04:35:50;;;;;;;0.35;0.35;;;5.80;99.90;;;;;;5038853;28;20031;-73
2022/09/22 04:38:17;;;;;;;0.30;0.30;;;5.60;99.90;;;;;;5072178;28;20564;-73
2022/09/22 04:40:43;;;;;;;0.30;0.30;;;5.70;99.90;;;;;;5073150;28;20039;-73
2022/09/22 04:43:09;;;;;;;0.22;0.22;;;5.50;99.90;;;;;;5073349;28;20024;-73
2022/09/22 04:45:35;;;;;;;0.38;0.38;;;5.40;99.90;;;;;;5073111;28;20514;-73
2022/09/22 04:48:01;;;;;;;0.17;0.17;;;5.20;99.90;;;;;;5073451;28;20103;-73
2022/09/22 04:50:27;;;;;;;0.10;0.10;;;5.20;99.90;;;;;;5073222;28;20032;-73
2022/09/22 04:52:55;;;;;;;0.50;0.50;;;5.30;99.90;;;;;;5073090;28;20074;-73
2022/09/22 04:55:22;;;;;;;0.20;0.20;;;5.40;99.90;;;;;;5072992;28;20067;-73
2022/09/22 04:57:54;;;;;;;4.18;1.27;;;5.60;99.90;;;;;;5038377;28;20028;-73
2022/09/22 05:00:21;;;;;;;0.30;0.30;;;5.60;99.90;;;;;;5055176;28;20025;-73
2022/09/22 05:02:47;;;;;;;0.43;0.43;;;5.70;99.90;;;;;;5055335;28;20024;-73
2022/09/22 05:05:13;;;;;;;0.20;0.20;;;5.80;99.90;;;;;;5072674;28;20492;-73
2022/09/22 05:07:45;;;;;;;0.25;0.25;;;5.90;99.90;;;;;;5072838;28;20033;-73
2022/09/22 05:10:12;;;;;;;0.20;0.20;;;6.00;99.90;;;;;;5054994;28;20036;-73
2022/09/22 05:12:39;;;;;;;0.20;0.20;;;6.20;99.90;;;;;;5072716;28;20135;-73
2022/09/22 05:15:05;;;;;;;0.30;0.30;;;6.30;99.90;;;;;;5072625;28;20075;-73
2022/09/22 05:17:32;;;;;;;0.20;0.20;;;6.20;99.90;;;;;;5054913;28;20078;-73
2022/09/22 05:19:58;;;;;;;0.68;0.68;;;6.20;99.90;;;;;;5071353;28;20021;-73
2022/09/22 05:22:23;;;;;;;0.20;0.20;;;6.20;99.90;;;;;;5072557;28;20078;-73
2022/09/22 05:24:50;;;;;;;0.20;0.20;;;6.20;99.90;;;;;;5072409;28;20397;-73
2022/09/22 05:27:17;;;;;;;0.20;0.20;;;6.30;99.90;;;;;;5072513;28;20017;-72
2022/09/22 05:29:42;;;;;;;0.22;0.22;;;6.40;99.90;;;;;;5072501;28;20380;-73
2022/09/22 05:32:08;;;;;;;0.20;0.20;;;6.50;99.90;;;;;;5054662;28;20031;-73
2022/09/22 05:34:34;;;;;;;0.20;0.20;;;6.60;99.90;;;;;;5072181;28;20484;-73
2022/09/22 05:37:00;;;;;;;0.20;0.20;;;6.60;99.90;;;;;;5068272;28;20067;-73
2022/09/22 05:39:28;;;;;;;0.30;0.30;;;6.60;99.90;;;;;;5017812;28;20025;-73
2022/09/22 05:41:54;;;;;;;0.22;0.22;;;6.50;99.90;;;;;;5034331;28;20021;-73
2022/09/22 05:44:20;;;;;;;0.40;0.40;;;6.50;99.90;;;;;;5052074;28;20076;-73
2022/09/22 05:46:47;;;;;;;0.30;0.30;;;6.10;99.90;;;;;;5051609;28;20038;-72
2022/09/22 05:49:13;;;;;;;0.20;0.20;;;6.00;99.90;;;;;;5064114;28;20476;-73
2022/09/22 05:51:38;;;;;;;0.30;0.30;;;5.80;99.90;;;;;;5054428;28;20036;-73
2022/09/22 05:54:04;;;;;;;1.00;1.00;;;5.80;99.90;;;;;;5068459;28;20021;-73
2022/09/22 05:56:31;;;;;;;0.60;0.60;;;5.50;99.90;;;;;;5051930;28;20465;-73
2022/09/22 05:58:56;;;;;;;0.80;0.80;;;5.40;99.90;;;;;;5051970;28;20180;-73
2022/09/22 06:01:22;;;;;;;2.85;0.88;;;5.60;99.90;;;;;;5051388;28;20104;-73
2022/09/22 06:03:48;;;;;;;0.20;0.20;;;5.60;99.90;;;;;;5049843;28;20066;-73
2022/09/22 06:06:14;;;;;;;0.20;0.20;;;5.50;99.90;;;;;;5050027;28;20519;-73
2022/09/22 06:08:40;;;;;;;0.30;0.30;;;5.60;99.90;;;;;;5050155;28;20033;-73
2022/09/22 06:11:06;;;;;;;0.30;0.30;;;5.90;99.90;;;;;;5050024;28;20032;-73
2022/09/22 06:13:32;;;;;;;6.97;6.28;;;6.20;99.90;;;;;;5050814;28;20025;-73
2022/09/22 06:16:02;;;;;;;0.40;0.40;;;6.30;99.90;;;;;;5050532;28;20124;-73
2022/09/22 06:18:30;;;;;;;0.20;0.20;;;6.30;99.90;;;;;;5051722;28;20029;-73
2022/09/22 06:20:56;;;;;;;0.95;0.95;;;6.40;99.90;;;;;;5051804;28;20031;-73
2022/09/22 06:23:22;;;;;;;0.20;0.20;;;6.50;99.90;;;;;;5050704;28;20021;-73
2022/09/22 06:25:48;;;;;;;0.30;0.30;;;6.60;99.90;;;;;;5051602;28;20184;-73
2022/09/22 06:28:15;;;;;;;0.22;0.22;;;6.80;99.90;;;;;;5033973;28;20103;-73
2022/09/22 06:30:41;;;;;;;0.20;0.20;;;6.90;99.90;;;;;;5051647;28;20036;-73
2022/09/22 06:33:08;;;;;;;0.30;0.30;;;7.00;99.90;;;;;;5050322;28;20025;-73
2022/09/22 06:35:36;;;;;;;0.30;0.30;;;7.10;99.90;;;;;;5051317;28;20057;-73
2022/09/22 06:38:05;;;;;;;0.20;0.20;;;7.20;99.90;;;;;;5051344;28;20055;-73
2022/09/22 06:40:31;;;;;;;0.20;0.20;;;7.50;99.90;;;;;;5050183;28;20063;-73
2022/09/22 06:42:58;;;;;;;0.32;0.32;;;7.50;99.90;;;;;;5051309;28;20071;-73
2022/09/22 06:45:26;;;;;;;0.20;0.20;;;7.60;99.90;;;;;;5055650;28;20491;-73
2022/09/22 06:47:56;;;;;;;0.10;0.10;;;7.60;99.90;;;;;;5055420;28;20028;-72
2022/09/22 06:50:22;;;;;;;0.15;0.15;;;7.80;99.90;;;;;;5037531;28;20040;-73
2022/09/22 06:52:50;;;;;;;0.30;0.30;;;7.80;99.90;;;;;;5037474;28;20029;-72
2022/09/22 06:55:19;;;;;;;0.57;0.55;;;8.00;99.90;;;;;;5055237;28;20025;-73
2022/09/22 06:57:45;;;;;;;0.55;0.55;;;8.20;99.90;;;;;;5055315;28;20025;-73
2022/09/22 07:00:13;;;;;;;0.20;0.20;;;8.40;99.90;;;;;;5055258;28;20029;-74
2022/09/22 07:02:39;;;;;;;0.20;0.20;;;8.30;99.90;;;;;;5037442;28;20078;-73
2022/09/22 07:05:05;;;;;;;0.20;0.20;;;8.30;99.90;;;;;;5068824;28;20021;-73
2022/09/22 07:07:31;;;;;;;0.20;0.20;;;8.20;99.90;;;;;;5075176;28;20446;-73
2022/09/22 07:09:57;;;;;;;0.20;0.20;;;8.10;99.90;;;;;;5074963;28;20024;-73
2022/09/22 07:12:24;;;;;;;0.20;0.20;;;8.10;99.90;;;;;;5057123;28;20025;-73
2022/09/22 07:14:52;;;;;;;0.10;0.10;;;8.30;99.90;;;;;;5074741;28;20029;-73
2022/09/22 07:17:20;;;;;;;0.20;0.20;;;8.50;99.90;;;;;;5074794;28;20473;-73
2022/09/22 07:19:46;;;;;;;0.20;0.20;;;8.70;99.90;;;;;;5057057;28;20021;-73
2022/09/22 07:22:14;;;;;;;0.17;0.17;;;8.90;99.90;;;;;;5074716;28;20091;-73
2022/09/22 07:24:41;;;;;;;0.20;0.20;;;8.80;99.90;;;;;;5074597;28;20412;-73
2022/09/22 07:27:09;;;;;;;0.40;0.40;;;9.00;99.90;;;;;;5056615;28;20028;-73
2022/09/22 07:29:36;;;;;;;0.20;0.20;;;9.10;99.90;;;;;;5056823;28;20024;-73
2022/09/22 07:32:02;;;;;;;0.20;0.20;;;9.30;99.90;;;;;;5074819;28;20489;-73
2022/09/22 07:34:28;;;;;;;0.20;0.20;;;9.30;99.90;;;;;;5074476;28;20155;-72
2022/09/22 07:36:54;;;;;;;0.20;0.20;;;9.30;99.90;;;;;;5074761;28;20474;-73
2022/09/22 07:39:20;;;;;;;0.20;0.20;;;9.30;99.90;;;;;;5056451;28;20345;-73
2022/09/22 07:41:46;;;;;;;0.10;0.10;;;9.40;99.90;;;;;;5074419;28;20021;-72
2022/09/22 07:46:59;;;;;;;0.20;0.20;;;9.40;99.90;;;;;;5074268;28;20027;-73
2022/09/22 07:49:25;;;;;;;0.20;0.20;;;9.50;99.90;;;;;;5074236;28;20059;-73
2022/09/22 07:51:56;;;;;;;0.10;0.10;;;9.70;99.90;;;;;;5074382;28;20025;-72
2022/09/22 07:54:23;;;;;;;0.45;0.45;;;9.90;99.90;;;;;;5074256;28;20021;-72
2022/09/22 07:56:54;;;;;;;0.45;0.45;;;10.00;99.90;;;;;;5074052;28;20636;-73
2022/09/22 07:59:19;;;;;;;0.20;0.20;;;10.00;99.90;;;;;;5074322;28;20021;-73
2022/09/22 08:01:47;;;;;;;0.20;0.20;;;10.10;99.90;;;;;;5056278;28;20028;-73
2022/09/22 08:04:15;;;;;;;0.20;0.20;;;10.20;99.90;;;;;;5073874;28;20020;-73
2022/09/22 08:06:42;;;;;;;0.85;0.65;;;10.20;99.90;;;;;;5072652;28;20028;-73
2022/09/22 08:09:09;;;;;;;0.20;0.20;;;10.20;99.90;;;;;;5074145;28;20074;-72
2022/09/22 08:11:35;;;;;;;0.20;0.20;;;10.30;99.90;;;;;;5068188;28;20036;-72
2022/09/22 08:14:04;;;;;;;0.40;0.40;;;10.30;99.90;;;;;;5053942;28;20029;-73
2022/09/22 08:16:32;;;;;;;0.20;0.20;;;10.50;99.90;;;;;;5053685;28;20029;-73
2022/09/22 08:19:02;;;;;;;0.25;0.25;;;10.60;99.90;;;;;;5052755;28;20036;-73
2022/09/22 08:21:34;;;;;;;0.20;0.20;;;10.60;99.90;;;;;;5019659;28;20554;-73
2022/09/22 08:24:08;;;;;;;0.10;0.10;;;10.60;99.90;;;;;;5053850;28;20025;-73
2022/09/22 08:26:35;;;;;;;0.20;0.20;;;10.60;99.90;;;;;;5052762;28;20021;-73
2022/09/22 08:29:03;;;;;;;0.38;0.38;;;10.80;99.90;;;;;;5053769;28;20029;-72
2022/09/22 08:31:29;;;;;;;0.20;0.20;;;10.80;99.90;;;;;;5053644;28;20036;-72
2022/09/22 08:33:55;;;;;;;0.17;0.17;;;10.80;99.90;;;;;;5053700;28;20033;-72
2022/09/22 08:36:24;;;;;;;0.10;0.10;;;11.00;99.90;;;;;;5053810;28;20021;-73
2022/09/22 08:38:50;;;;;;;0.40;0.40;;;11.00;99.90;;;;;;5019180;28;20400;-73
2022/09/22 08:41:36;;;;;;;0.20;0.20;;;11.10;99.90;;;;;;5053490;28;20021;-72
2022/09/22 08:44:18;;;;;;;0.20;0.20;;;10.90;99.90;;;;;;5053365;28;20086;-72
2022/09/22 08:46:45;;;;;;;;;;;11.10;99.90;;;;;;5036020;28;20025;-73
2022/09/22 08:52:20;;;;;;;0.13;0.13;;;11.60;99.90;;;;;;5053621;28;20481;-73
2022/09/22 08:54:46;;;;;;;0.40;0.40;;;12.10;99.90;;;;;;5036030;28;20037;-73
2022/09/22 08:57:24;;;;;;;0.20;0.20;;;12.50;99.90;;;;;;5053884;28;20017;-73
2022/09/22 09:00:13;;;;;;;0.30;0.30;;;12.80;99.90;;;;;;5054891;28;20108;-73
2022/09/22 09:03:27;;;;;;;0.10;0.10;;;13.10;99.90;;;;;;5052289;28;20033;-73
2022/09/22 09:05:58;;;;;;;0.20;0.20;;;13.50;99.90;;;;;;5053266;28;20001;-73
2022/09/22 09:08:44;;;;;;;0.20;0.20;;;13.60;99.90;;;;;;5053786;28;20473;-73
2022/09/22 09:11:26;;;;;;;0.20;0.20;;;13.80;99.90;;;;;;5053486;28;20028;-73
2022/09/22 09:14:25;;;;;;;0.43;0.40;;;13.90;99.90;;;;;;5053009;28;20025;-73
2022/09/22 09:17:16;;;;;;;0.20;0.20;;;14.30;99.90;;;;;;5052724;28;20064;-73
2022/09/22 09:19:47;;;;;;;2.60;1.02;;;14.70;99.90;;;;;;5040772;28;20511;-73
2022/09/22 09:22:32;;;;;;;0.77;0.77;;;14.80;99.80;;;;;;5052627;28;20075;-73
2022/09/22 09:25:03;;;;;;;0.20;0.20;;;15.00;99.70;;;;;;5052550;28;20021;-73
2022/09/22 09:27:35;;;;;;;0.20;0.20;;;15.30;99.90;;;;;;5018286;28;20048;-73
2022/09/22 09:30:08;;;;;;;0.20;0.20;;;15.60;98.00;;;;;;5052493;28;20029;-73
2022/09/22 09:32:42;;;;;;;0.63;0.63;;;15.90;96.80;;;;;;5035977;28;20032;-74
2022/09/22 09:35:13;;;;;;;0.30;0.20;;;16.30;94.80;;;;;;5034881;28;20017;-73
2022/09/22 09:37:41;;;;;;;;;;;16.00;94.10;;;;;;5052629;28;20033;-73
2022/09/22 09:40:14;;;;;;;0.30;0.30;;;15.90;94.60;;;;;;5052073;28;19908;-73
2022/09/22 09:42:42;;;;;;;0.00;0.00;;;16.30;92.70;;;;;;5052222;28;20021;-73
2022/09/22 09:45:13;;;;;;;0.20;0.20;;;16.50;92.20;;;;;;5051908;28;20100;-73
2022/09/22 09:47:42;;;;;;;;;;;16.90;91.40;;;;;;5065758;28;20068;-73
2022/09/22 09:50:10;;;;;;;0.50;0.50;;;17.10;89.00;;;;;;5071760;28;19912;-73
2022/09/22 09:52:37;;;;;;;0.30;0.30;;;17.30;90.30;;;;;;5071646;28;20468;-74
2022/09/22 09:55:17;;;;;;;0.60;0.60;;;17.50;87.00;;;;;;5071873;28;20048;-73
2022/09/22 09:58:09;;;;;;;0.80;0.43;;;17.60;84.40;;;;;;5071803;28;20025;-73
2022/09/22 10:00:55;;;;;;;0.50;0.50;;;17.90;81.10;;;;;;5054012;28;20065;-75
2022/09/22 10:03:26;;;;;;;0.43;0.43;;;17.70;82.70;;;;;;5071732;28;20115;-74
2022/09/22 10:06:05;;;;;;;0.13;0.13;;;18.00;79.30;;;;;;5071603;28;20047;-74
2022/09/22 10:08:46;;;;;;;1.30;0.70;;;18.00;79.30;;;;;;5071753;28;20032;-74
2022/09/22 10:11:13;;;;;;;0.10;0.10;;;18.40;77.90;;;;;;5072119;28;20029;-74
2022/09/22 10:13:41;;;;;;;0.30;0.25;;;18.70;76.20;;;;;;5071999;28;20282;-73
2022/09/22 10:16:22;;;;;;;5.38;0.52;;;18.90;73.80;;;;;;5071840;28;20032;-73
2022/09/22 10:19:00;;;;;;;0.10;0.10;;;19.00;71.50;;;;;;5071283;28;20491;-73
2022/09/22 10:21:27;;;;;;;0.10;0.10;;;18.90;70.20;;;;;;5071540;28;20028;-73
2022/09/22 10:23:55;;;;;;;0.00;0.00;;;19.30;70.60;;;;;;5053509;28;20029;-73
2022/09/22 10:26:27;;;;;;;0.22;0.22;;;19.70;67.90;;;;;;5071329;28;20035;-73
2022/09/22 10:29:11;;;;;;;0.40;0.40;;;19.50;65.30;;;;;;5071598;28;20500;-73
2022/09/22 10:31:37;;;;;;;0.10;0.10;;;19.40;63.50;;;;;;5071684;28;20028;-74
2022/09/22 10:34:05;;;;;;;0.10;0.10;;;19.50;62.40;;;;;;5071304;28;20487;-73
2022/09/22 10:36:33;;;;;;;0.10;0.10;;;19.40;63.50;;;;;;5053500;28;20081;-73
2022/09/22 10:38:59;;;;;;;0.10;0.10;;;19.40;61.20;;;;;;5071386;28;20037;-74
2022/09/22 10:41:32;;;;;;;0.30;0.30;;;19.70;60.80;;;;;;5053511;28;20016;-73
2022/09/22 10:44:17;;;;;;;0.10;0.10;;;19.80;58.40;;;;;;5053587;28;20032;-73
2022/09/22 10:46:54;;;;;;;0.40;0.40;;;19.60;58.60;;;;;;5069874;28;20517;-73
2022/09/22 10:49:38;;;;;;;0.08;0.08;;;19.80;60.50;;;;;;5053402;28;20059;-73
2022/09/22 10:52:23;;;;;;;0.08;0.08;;;19.80;61.00;;;;;;5071260;28;20066;-74
2022/09/22 10:55:12;;;;;;;0.10;0.10;;;20.40;59.40;;;;;;5069870;28;20116;-73
2022/09/22 10:57:53;;;;;;;0.35;0.30;;;20.50;60.30;;;;;;5071386;28;20031;-74
2022/09/22 11:00:21;;;;;;;0.10;0.10;;;20.80;61.80;;;;;;5053619;28;20031;-73
2022/09/22 11:02:55;;;;;;;0.15;0.15;;;21.10;62.20;;;;;;5071296;28;20028;-75
2022/09/22 11:14:47;;;;;;;0.00;0.00;;;20.60;57.40;;;;;;5070969;28;20020;-74
2022/09/22 11:17:32;;;;;;;0.28;0.28;;;20.60;57.80;;;;;;5070972;28;20099;-74
2022/09/22 11:20:06;;;;;;;1.45;0.30;;;20.30;58.60;;;;;;5071033;28;20074;-74
2022/09/22 11:22:51;;;;;;;0.17;0.17;;;20.80;57.70;;;;;;5071279;28;20029;-76
2022/09/22 11:25:56;;;;;;;0.10;0.10;;;20.90;56.20;;;;;;5053141;28;20021;-75
2022/09/22 11:28:30;;;;;;;0.75;0.43;;;20.40;55.60;;;;;;5025009;28;20044;-75
2022/09/22 11:30:57;;;;;;;0.00;0.00;;;20.60;56.30;;;;;;5074084;28;20174;-73
2022/09/22 11:33:48;;;;;;;0.00;0.00;;;20.90;56.80;;;;;;5056658;28;20029;-73
2022/09/22 11:36:19;;;;;;;0.80;0.50;;;20.90;56.30;;;;;;5056503;28;20021;-72
2022/09/22 11:38:58;;;;;;;;;;;19.90;54.90;;;;;;5065721;28;20025;-72
2022/09/22 11:41:37;;;;;;;0.15;0.15;;;20.00;56.50;;;;;;5036348;28;19905;-73
2022/09/22 11:44:42;;;;;;;0.43;0.43;;;20.70;56.80;;;;;;5053168;28;20021;-74
2022/09/22 11:48:01;;;;;;;0.00;0.00;;;20.90;58.00;;;;;;5054092;28;20113;-73
2022/09/22 11:50:59;;;;;;;0.63;0.63;;;20.90;55.60;;;;;;4973153;28;20027;-74
2022/09/22 11:53:38;;;;;;;4.07;1.05;;;21.30;56.20;;;;;;5036231;28;20017;-73
2022/09/22 11:56:38;;;;;;;0.00;0.00;;;21.20;54.10;;;;;;5053992;28;20025;-73
2022/09/22 11:59:19;;;;;;;0.10;0.10;;;21.30;53.60;;;;;;5052641;28;20480;-73
2022/09/22 12:01:47;;;;;;;0.27;0.27;;;21.40;54.20;;;;;;5055759;28;20044;-74
2022/09/22 12:04:36;;;;;;;0.05;0.05;;;21.40;55.30;;;;;;5054688;28;20439;-73
2022/09/22 12:07:08;;;;;;;0.00;0.00;;;21.70;56.10;;;;;;5074011;28;20027;-73
2022/09/22 12:09:55;;;;;;;0.10;0.10;;;21.70;56.70;;;;;;5074097;28;20047;-73
2022/09/22 12:12:23;;;;;;;1.75;0.73;;;21.50;55.30;;;;;;5073952;28;20070;-73
2022/09/22 12:15:02;;;;;;;0.20;0.20;;;21.40;55.20;;;;;;5073359;28;20543;-73
2022/09/22 12:18:04;;;;;;;0.55;0.43;;;21.60;55.40;;;;;;5073758;28;20020;-73
2022/09/22 12:20:59;;;;;;;0.47;0.30;;;21.10;54.60;;;;;;5069967;28;20045;-73
2022/09/22 12:23:41;;;;;;;2.05;0.95;;;20.70;56.80;;;;;;5055829;28;20377;-73
2022/09/22 12:26:14;;;;;;;0.10;0.10;;;20.40;57.90;;;;;;5055640;28;20029;-73
2022/09/22 12:28:42;;;;;;;0.13;0.13;;;20.10;59.20;;;;;;5073533;28;20388;-73
2022/09/22 12:31:20;;;;;;;1.67;0.63;;;19.80;58.70;;;;;;5073376;28;20031;-73
2022/09/22 12:33:50;;;;;;;0.40;0.38;;;19.80;58.10;;;;;;5073735;28;20036;-73
2022/09/22 12:36:27;;;;;;;0.00;0.00;;;19.70;57.30;;;;;;5073526;28;20380;-73
2022/09/22 12:39:13;;;;;;;20.50;7.22;;;19.20;58.50;;;;;;5055371;28;20024;-73
2022/09/22 12:42:01;;;;;;;5.22;2.67;;;19.50;59.90;;;;;;5072444;28;20009;-74
2022/09/22 12:44:35;;;;;;;0.30;0.30;;;19.90;59.00;;;;;;5055628;28;20029;-74
2022/09/22 12:47:19;;;;;;;4.07;3.55;;;19.70;60.40;;;;;;5073200;28;20295;-74
2022/09/22 12:49:52;;;;;;;17.48;5.63;;;19.40;59.70;;;;;;5073129;28;20369;-73
2022/09/22 12:52:56;;;;;;;3.17;1.85;;;19.30;60.40;;;;;;5073073;28;20020;-74
2022/09/22 12:55:27;;;;;;;4.55;1.30;;;18.90;59.90;;;;;;5072850;28;20024;-73
2022/09/22 12:57:56;;;;;;;21.98;7.28;;;18.80;61.60;;;;;;5072828;28;20031;-73
2022/09/22 13:00:32;;;;;;;4.10;1.02;;;18.70;59.20;;;;;;5073063;28;20392;-74
2022/09/22 13:02:59;;;;;;;0.00;0.00;;;18.40;58.80;;;;;;5073017;28;20547;-74
2022/09/22 13:05:25;;;;;;;0.10;0.10;;;18.20;57.80;;;;;;5072738;28;20108;-74
2022/09/22 13:07:52;;;;;;;0.63;0.63;;;18.30;57.70;;;;;;5073449;28;20120;-74
2022/09/22 13:10:24;;;;;;;0.85;0.38;;;18.50;58.50;;;;;;5072837;28;20029;-74
2022/09/22 13:15:48;;;;;;;0.05;0.05;;;18.40;59.10;;;;;;5072848;28;20439;-74
2022/09/22 13:18:36;;;;;;;0.35;0.35;;;18.40;58.90;;;;;;5072796;28;20029;-73
2022/09/22 13:21:27;;;;;;;0.10;0.10;;;18.30;59.20;;;;;;5072633;28;20028;-74
2022/09/22 13:23:53;;;;;;;0.43;0.43;;;18.30;56.70;;;;;;5064978;28;20327;-73
2022/09/22 13:26:26;;;;;;;0.15;0.15;;;18.20;55.90;;;;;;5052312;28;20061;-74
2022/09/22 13:29:14;;;;;;;0.22;0.22;;;18.00;56.60;;;;;;5034621;28;20032;-74
2022/09/22 13:31:53;;;;;;;0.45;0.40;;;17.90;58.20;;;;;;5034340;28;20039;-73
2022/09/22 13:34:26;;;;;;;0.10;0.10;;;17.80;58.30;;;;;;5051208;28;20029;-73
2022/09/22 13:37:03;;;;;;;0.40;0.32;;;17.70;57.80;;;;;;5017937;28;20029;-73